In Rescue
 
Open Full Screen Window  High Contrast Mode
Wind Gusting 00 knots
08
February 25, 2021 5:04 PM EST
Weather Information
Wind Direction
  290 °
Wind Speed
  08 kt (9 mph)
Wind Gust
  00 kt (0 mph)
Altimeter
30.30 in
Visibility
10 SM
Temperature
02° C
36° F
Dewpoint
-04° C
25° F
Humidity
65%
Sky Condition
Clear
VFR

METAR KHAI 252204Z AUTO 29008KT 10SM CLR 02/M04 A3030 RMK AO2 T00211044

FAA Disclaimer: The data displayed is for advisory purposes only and is not to be used for flight planning or operations.